Latest Weather Observations for Horn Island

IDQ60801

Issued at 8:05 pm EST Monday 21 April 2014 (issued every 30 minutes, with the page automatically refreshed every 10 minutes)

About weather observations | Map of weather stations | Latest weather observations for QLD | Other Formats
Station Details ID: 027058 Name: HORN ISLAND Lat: -10.58 Lon: 142.29 Height: 4.0 m
Data from the previous 72 hours. | See also: Recent months at Horn Island
Date/Time
EST
Temp
°C
App
Temp
°C
Dew
Point
Rel
Hum
%
Delta-T
°C
Wind Press
QNH
hPa
Press
MSL
hPa
Rain
since 9 am
mm
Dir
 
Spd
km/h
Gust
km/h
Spd
kts
Gust
kts
21/08:00pm 27.1 30.8 25.7 92 1.0 ESE 17 24 9 13 1009.7 - 0.8
21/07:30pm 27.2 30.4 25.6 91 1.1 SE 19 24 10 13 1009.7 - 0.8
21/07:00pm 26.7 30.4 25.1 91 1.1 SE 15 24 8 13 1009.4 - 0.8
21/06:30pm 26.8 30.4 25.0 90 1.3 SSE 15 19 8 10 1009.0 - 0.8
21/06:00pm 27.5 30.6 25.7 90 1.3 ESE 20 32 11 17 1008.7 1008.7 0.8
21/05:30pm 27.7 30.9 25.9 90 1.3 ESE 20 30 11 16 1008.6 - 0.8
21/05:00pm 27.7 31.1 25.9 90 1.3 ESE 19 26 10 14 1008.6 - 0.8
21/04:30pm 27.8 31.2 26.2 91 1.1 ESE 20 26 11 14 1008.4 - 0.8
21/04:00pm 27.7 31.6 26.1 91 1.1 ESE 17 30 9 16 1008.3 - 0.8
21/03:30pm 27.7 31.4 26.3 92 1.0 ESE 19 24 10 13 1008.2 - 0.8
21/03:00pm 27.6 31.2 26.2 92 1.0 ESE 19 26 10 14 1008.3 1008.3 0.8
21/02:30pm 27.4 30.9 26.0 92 1.0 ESE 19 26 10 14 1008.7 - 0.8
21/02:00pm 26.8 29.6 25.0 90 1.3 ESE 19 26 10 14 1008.6 - 0.8
21/01:57pm 26.7 29.5 24.9 90 1.3 ESE 19 26 10 14 1008.6 - 0.8
21/01:39pm 26.7 28.7 24.5 88 1.5 ESE 22 32 12 17 1009.1 - 0.4
21/01:30pm 27.2 28.6 24.8 87 1.7 ESE 26 39 14 21 1009.1 - 0.2
21/01:00pm 28.4 29.3 25.8 86 1.8 ESE 32 44 17 24 1009.1 - 0.2
21/12:30pm 28.8 30.2 26.0 85 2.0 ESE 30 43 16 23 1009.5 - 0.2
21/12:00pm 28.9 30.9 26.3 86 1.9 ESE 28 39 15 21 1009.8 1009.8 0.2
21/11:30am 28.7 30.7 26.3 87 1.7 ESE 28 37 15 20 1010.2 - 0.2
21/11:00am 28.7 31.1 26.9 90 1.3 ESE 28 39 15 21 1010.6 - 0.2
21/10:30am 28.2 31.7 26.8 92 1.0 ESE 22 33 12 18 1010.9 - 0.2
21/10:00am 27.5 29.7 26.1 92 1.0 ESE 26 37 14 20 1010.8 - 0.2
21/09:30am 27.4 30.6 26.5 95 0.6 ESE 22 35 12 19 1010.8 - 0.2
21/09:00am 27.0 30.4 26.1 95 0.6 ESE 20 30 11 16 1010.6 1010.6 5.2
21/08:30am 26.5 29.7 25.6 95 0.6 ESE 19 24 10 13 1010.4 - 5.2
21/08:00am 26.0 28.7 25.1 95 0.6 ESE 20 30 11 16 1010.1 - 5.0
21/07:42am 26.0 28.9 25.1 95 0.6 ESE 19 28 10 15 1010.0 - 5.0
21/07:39am 25.9 28.6 25.0 95 0.6 ESE 20 28 11 15 1010.0 - 5.0
21/07:30am 25.9 28.6 25.0 95 0.6 ESE 20 32 11 17 1009.9 - 4.8
21/07:15am 26.1 28.8 25.1 94 0.7 ESE 20 32 11 17 1010.0 - 3.2
21/07:04am 26.2 29.0 25.2 94 0.7 ESE 20 32 11 17 1009.6 - 2.6
21/07:00am 26.2 28.6 25.2 94 0.7 ESE 22 32 12 17 1009.5 - 2.6
21/06:49am 26.0 28.7 25.0 94 0.7 ESE 20 33 11 18 1009.4 - 2.4
21/06:30am 26.1 27.9 24.9 93 0.8 ESE 24 37 13 20 1009.2 - 2.0
21/06:20am 26.2 29.0 25.0 93 0.8 ESE 19 26 10 14 1009.0 - 1.4
21/06:14am 26.2 28.9 25.0 93 0.8 ESE 20 28 11 15 1008.9 - 1.2
21/06:02am 26.2 28.5 25.0 93 0.8 ESE 22 33 12 18 1008.7 - 0.8
21/06:00am 26.2 28.9 25.0 93 0.8 ESE 20 32 11 17 1008.7 1008.7 0.8
21/05:30am 26.1 29.1 24.7 92 1.0 SE 17 24 9 13 1008.3 - 0.4
21/05:25am 25.9 28.8 24.5 92 1.0 SE 17 24 9 13 1008.3 - 0.4
21/05:00am 26.0 28.5 24.4 91 1.1 SE 19 28 10 15 1008.3 - 0.4
21/04:59am 26.0 28.5 24.4 91 1.1 SE 19 28 10 15 1008.3 - 0.4
21/04:30am 26.3 29.3 24.7 91 1.1 SE 17 24 9 13 1008.2 - 0.2
21/04:00am 26.1 29.0 24.5 91 1.1 SSE 17 24 9 13 1008.3 - 0.2
21/03:59am 26.1 29.0 24.5 91 1.1 SSE 17 24 9 13 1008.3 - 0.2
21/03:30am 26.0 28.9 24.4 91 1.1 SE 17 22 9 12 1008.4 - 0.2
21/03:14am 26.0 28.7 24.2 90 1.2 SSE 17 24 9 13 1008.5 - 0.2
21/03:00am 26.1 28.9 24.3 90 1.2 SE 17 26 9 14 1008.6 1008.6 0.2
21/02:30am 26.1 28.9 24.3 90 1.2 SE 17 28 9 15 1008.6 - 0.2
21/02:00am 26.0 27.8 24.2 90 1.2 ESE 22 30 12 16 1008.6 - 0.2
21/01:40am 25.7 27.8 23.7 89 1.4 SE 19 30 10 16 1008.8 - 0.2
21/01:30am 25.4 27.2 23.3 88 1.4 SE 19 26 10 14 1009.0 - 0.2
21/01:00am 25.7 27.5 23.2 86 1.7 SE 19 26 10 14 1009.3 - 0.2
21/12:30am 26.7 29.2 23.8 84 2.0 SE 17 26 9 14 1009.3 - 0.2
21/12:00am 26.3 28.3 23.6 85 1.8 SE 19 28 10 15 1009.6 1009.6 0.2
 
Date/Time
EST
Temp
°C
App
Temp
°C
Dew
Point
Rel
Hum
%
Delta-T
°C
Wind Press
QNH
hPa
Press
MSL
hPa
Rain
since 9 am
mm
Dir
 
Spd
km/h
Gust
km/h
Spd
kts
Gust
kts
20/11:30pm 26.7 28.8 23.8 84 2.0 SE 19 28 10 15 1009.9 - 0.2
20/11:00pm 26.4 28.2 23.3 83 2.1 SE 19 28 10 15 1010.0 - 0.2
20/10:30pm 27.0 28.3 23.3 80 2.5 SE 22 32 12 17 1010.1 - 0.2
20/10:00pm 27.0 27.5 23.3 80 2.5 SE 26 37 14 20 1010.1 - 0.2
20/09:30pm 27.1 27.6 23.3 80 2.6 SE 26 44 14 24 1010.1 - 0.2
20/09:00pm 27.0 27.9 23.3 80 2.5 ESE 24 43 13 23 1009.9 1009.9 0.2
20/08:30pm 26.9 27.7 23.2 80 2.5 ESE 24 39 13 21 1009.8 - 0.2
20/08:00pm 27.0 28.4 23.5 81 2.4 ESE 22 30 12 16 1009.7 - 0.2
20/07:30pm 27.0 28.0 23.5 81 2.4 ESE 24 35 13 19 1009.4 - 0.2
20/07:00pm 27.0 28.0 23.5 81 2.4 ESE 24 37 13 20 1008.8 - 0.2
20/06:30pm 27.0 27.7 23.7 82 2.3 ESE 26 43 14 23 1008.4 - 0.2
20/06:00pm 26.9 27.6 23.6 82 2.3 ESE 26 37 14 20 1007.9 1007.9 0.2
20/05:30pm 27.0 28.2 23.9 83 2.1 ESE 24 32 13 17 1007.9 - 0.2
20/05:00pm 27.0 27.9 23.9 83 2.1 ESE 26 39 14 21 1007.9 - 0.2
20/04:30pm 27.0 27.9 23.9 83 2.1 ESE 26 37 14 20 1007.7 - 0.2
20/04:00pm 27.2 27.8 24.1 83 2.1 ESE 28 41 15 22 1007.4 - 0.2
20/03:30pm 27.2 26.9 23.9 82 2.3 ESE 32 41 17 22 1007.4 - 0.2
20/03:00pm 27.2 28.2 24.1 83 2.1 ESE 26 39 14 21 1007.4 1007.4 0.2
20/02:30pm 27.1 27.6 24.0 83 2.1 ESE 28 37 15 20 1007.6 - 0.2
20/02:00pm 27.2 27.0 24.1 83 2.1 ESE 32 41 17 22 1007.7 - 0.0
20/01:30pm 26.9 26.6 23.8 83 2.1 ESE 32 41 17 22 1008.3 - 0.0
20/01:00pm 27.6 27.2 24.0 81 2.5 ESE 33 43 18 23 1008.9 - 0.0
20/12:30pm 27.6 27.7 24.0 81 2.5 ESE 30 37 16 20 1009.5 - 0.0
20/12:00pm 27.5 27.2 23.9 81 2.5 ESE 32 43 17 23 1009.5 1009.5 0.0
20/11:30am 27.6 28.2 24.2 82 2.4 ESE 28 37 15 20 1009.8 - 0.0
20/11:00am 27.3 27.4 24.0 82 2.3 ESE 30 41 16 22 1010.3 - 0.0
20/10:33am 27.4 27.8 23.8 81 2.5 ESE 28 46 15 25 1010.5 - 0.0
20/10:30am 27.4 27.4 23.8 81 2.5 ESE 30 46 16 25 1010.5 - 0.0
20/10:00am 27.4 28.2 23.8 81 2.5 ESE 26 39 14 21 1010.5 - 0.0
20/09:30am 27.2 27.6 23.7 81 2.4 ESE 28 39 15 21 1010.3 - 0.0
20/09:00am 27.2 27.7 23.9 82 2.3 ESE 28 41 15 22 1010.2 1010.2 12.0
20/08:30am 26.8 27.0 23.5 82 2.3 ESE 28 39 15 21 1010.0 - 12.0
20/08:00am 26.7 26.3 23.0 80 2.5 ESE 30 41 16 22 1009.4 - 12.0
20/07:55am 26.8 26.4 23.1 80 2.5 ESE 30 48 16 26 1009.3 - 12.0
20/07:30am 27.2 27.3 23.2 79 2.7 E 28 39 15 21 1009.1 - 12.0
20/07:00am 27.1 27.2 23.3 80 2.6 ESE 28 43 15 23 1008.6 - 12.0
20/06:30am 26.9 26.2 23.2 80 2.5 ESE 32 46 17 25 1008.4 - 12.0
20/06:21am 27.0 27.1 23.3 80 2.5 ESE 28 48 15 26 1008.4 - 12.0
20/06:00am 26.8 26.5 23.3 81 2.4 ESE 30 43 16 23 1008.2 1008.2 12.0
20/05:30am 26.9 27.1 23.4 81 2.4 ESE 28 39 15 21 1008.0 - 12.0
20/05:00am 26.9 27.5 23.4 81 2.4 ESE 26 41 14 22 1007.9 - 12.0
20/04:30am 26.8 27.0 23.5 82 2.3 ESE 28 44 15 24 1007.6 - 12.0
20/04:00am 26.9 26.8 23.6 82 2.3 ESE 30 41 16 22 1007.8 - 12.0
20/03:30am 26.8 27.2 23.7 83 2.1 ESE 28 44 15 24 1008.1 - 12.0
20/03:00am 26.8 27.2 23.7 83 2.1 ESE 28 39 15 21 1008.2 1008.2 12.0
20/02:30am 26.7 27.1 23.8 84 2.0 ESE 28 41 15 22 1008.3 - 12.0
20/02:00am 26.6 26.3 23.9 85 1.9 ESE 32 46 17 25 1008.2 - 11.8
20/01:30am 26.3 26.3 23.8 86 1.7 ESE 30 43 16 23 1008.4 - 11.8
20/01:00am 26.6 27.6 24.1 86 1.7 ESE 26 37 14 20 1009.1 - 11.8
20/12:30am 26.6 26.7 23.9 85 1.9 ESE 30 43 16 23 1009.3 - 11.8
20/12:00am 26.9 27.7 24.4 86 1.7 ESE 28 39 15 21 1009.4 1009.4 11.8
 
Date/Time
EST
Temp
°C
App
Temp
°C
Dew
Point
Rel
Hum
%
Delta-T
°C
Wind Press
QNH
hPa
Press
MSL
hPa
Rain
since 9 am
mm
Dir
 
Spd
km/h
Gust
km/h
Spd
kts
Gust
kts
19/11:30pm 26.5 27.1 24.2 87 1.6 ESE 28 39 15 21 1009.8 - 11.6
19/11:04pm 26.9 27.6 24.9 89 1.4 ESE 30 48 16 26 1010.0 - 11.6
19/11:00pm 26.9 27.0 24.9 89 1.4 ESE 33 48 18 26 1010.0 - 11.6
19/10:30pm 26.6 28.5 25.0 91 1.1 ESE 24 35 13 19 1009.8 - 11.6
19/10:00pm 26.4 28.7 25.0 92 1.0 SE 22 37 12 20 1009.9 - 11.6
19/09:50pm 26.0 29.1 24.8 93 0.8 SE 17 32 9 17 1010.1 - 11.6
19/09:32pm 25.6 28.7 24.2 92 1.0 ESE 15 20 8 11 1010.2 - 11.6
19/09:30pm 25.6 28.7 24.2 92 1.0 ESE 15 20 8 11 1010.2 - 11.4
19/09:00pm 25.4 27.2 23.6 90 1.2 SE 20 30 11 16 1010.2 1010.2 11.0
19/08:57pm 25.4 26.8 23.6 90 1.2 SE 22 33 12 18 1010.1 - 11.0
19/08:37pm 25.8 26.0 23.5 87 1.6 E 28 37 15 20 1010.1 - 10.8
19/08:30pm 27.1 29.6 24.7 87 1.7 SE 20 28 11 15 1009.7 - 10.0
19/08:00pm 27.2 29.5 25.0 88 1.5 ESE 22 35 12 19 1009.6 - 10.0
19/07:30pm 27.1 29.3 24.9 88 1.5 ESE 22 30 12 16 1009.0 - 10.0
19/07:00pm 27.0 29.7 25.0 89 1.4 ESE 20 32 11 17 1008.6 - 10.0
19/06:30pm 26.9 28.6 24.7 88 1.5 ESE 24 30 13 16 1008.3 - 10.0
19/06:00pm 26.7 28.0 24.7 89 1.4 ESE 26 39 14 21 1008.0 1008.0 10.0
19/05:30pm 26.6 27.3 24.3 87 1.6 ESE 28 35 15 19 1008.0 - 10.0
19/05:13pm 26.7 26.7 24.4 87 1.6 ESE 32 50 17 27 1007.8 - 10.0
19/05:00pm 26.6 26.5 24.3 87 1.6 ESE 32 46 17 25 1007.7 - 10.0
19/04:44pm 27.3 27.7 25.1 88 1.5 E 32 50 17 27 1007.7 - 10.0
19/04:30pm 27.5 28.8 25.3 88 1.5 E 28 39 15 21 1007.6 - 10.0
19/04:12pm 27.5 28.8 25.3 88 1.5 ESE 28 46 15 25 1007.5 - 10.0
19/04:00pm 27.6 29.1 25.6 89 1.4 E 28 39 15 21 1007.5 - 10.0
19/03:51pm 27.3 28.6 25.3 89 1.4 ESE 28 39 15 21 1007.5 - 10.0
19/03:30pm 27.2 28.8 25.2 89 1.4 E 26 41 14 22 1007.6 - 10.0
19/03:00pm 27.1 27.7 25.3 90 1.3 E 32 44 17 24 1007.7 1007.7 10.0
19/02:53pm 27.1 28.0 25.3 90 1.3 E 30 44 16 24 1007.8 - 10.0
19/02:30pm 27.2 28.1 25.2 89 1.4 E 30 43 16 23 1008.1 - 10.0
19/02:00pm 26.9 26.9 25.3 91 1.1 E 35 48 19 26 1008.4 - 10.0
19/01:30pm 26.7 28.2 25.5 93 0.8 E 28 41 15 22 1009.0 - 10.0
19/01:01pm 25.9 27.0 24.9 94 0.7 E 28 46 15 25 1009.6 - 10.0
19/01:00pm 26.0 26.8 25.0 94 0.7 E 30 46 16 25 1009.6 - 10.0
19/12:43pm 26.1 26.3 25.1 94 0.7 E 33 46 18 25 1009.6 - 10.0
19/12:30pm 25.9 27.0 25.0 95 0.6 E 28 39 15 21 1009.6 - 10.0
19/12:27pm 26.0 26.8 25.1 95 0.6 E 30 44 16 24 1009.7 - 10.0
19/12:00pm 25.7 26.0 24.8 95 0.6 ENE 32 48 17 26 1009.9 1009.9 9.6
19/11:43am 25.7 26.0 24.8 95 0.6 ENE 32 52 17 28 1010.3 - 9.6
19/11:41am 25.8 26.1 24.9 95 0.6 ENE 32 44 17 24 1010.4 - 9.6
19/11:30am 25.3 26.1 24.4 95 0.6 E 28 59 15 32 1010.8 - 9.6
19/11:27am 25.3 25.3 24.4 95 0.6 E 32 59 17 32 1010.9 - 9.6
19/11:07am 26.2 26.9 25.5 96 0.5 E 32 50 17 27 1010.9 - 9.2
19/11:00am 26.3 26.6 25.8 97 0.4 ESE 35 48 19 26 1011.0 - 9.2
19/10:53am 26.3 27.9 25.8 97 0.4 ESE 28 48 15 26 1011.0 - 9.2
19/10:30am 25.5 28.5 25.2 98 0.2 SE 19 26 10 14 1011.2 - 8.8
19/10:01am 25.1 28.1 24.6 97 0.3 SE 17 20 9 11 1011.2 - 7.8
19/10:00am 25.1 28.1 24.6 97 0.3 SE 17 20 9 11 1011.2 - 7.8
19/09:30am 24.4 25.9 23.7 96 0.5 ESE 22 30 12 16 1011.7 - 5.2
19/09:00am 23.6 22.4 22.6 94 0.7 E 33 48 18 26 1012.0 1012.0 107.2
19/08:30am 24.7 23.9 23.1 91 1.1 ENE 32 50 17 27 1011.6 - 96.8
19/08:19am 26.8 27.4 25.4 92 1.0 ESE 32 52 17 28 1010.8 - 96.4
19/08:00am 26.6 27.9 25.2 92 1.0 ESE 28 43 15 23 1010.8 - 96.0
19/07:30am 26.2 27.7 25.0 93 0.8 ESE 26 43 14 23 1010.2 - 96.0
19/07:00am 25.8 25.8 24.4 92 1.0 ESE 32 46 17 25 1009.8 - 96.0
19/06:50am 26.2 27.2 24.8 92 1.0 ESE 28 56 15 30 1009.7 - 96.0
19/06:30am 26.3 28.1 24.9 92 1.0 ESE 24 32 13 17 1009.6 - 95.8
19/06:00am 26.6 29.4 25.2 92 1.0 SE 20 30 11 16 1009.5 1009.5 95.6
19/05:30am 26.6 28.7 25.4 93 0.8 SE 24 35 13 19 1008.9 - 95.6
19/05:00am 26.4 28.5 25.4 94 0.7 SE 24 39 13 21 1008.5 - 95.6
19/04:30am 26.3 29.2 25.4 95 0.6 SE 20 30 11 16 1008.5 - 95.4
19/04:00am 26.3 29.2 25.4 95 0.6 SE 20 33 11 18 1008.7 - 95.4
19/03:30am 26.2 29.2 25.5 96 0.5 SE 20 28 11 15 1008.8 - 95.4
19/03:00am 26.0 29.0 25.3 96 0.5 SE 19 30 10 16 1008.9 1008.9 95.4
19/02:30am 25.9 29.3 25.2 96 0.5 SE 17 24 9 13 1009.3 - 95.4
19/02:00am 25.9 28.2 25.0 95 0.6 SE 22 37 12 20 1009.6 - 95.4
19/01:30am 26.1 29.1 25.2 95 0.6 SE 19 26 10 14 1009.6 - 95.2
19/01:00am 26.0 28.9 25.1 95 0.6 SE 19 26 10 14 1009.9 - 95.2
19/12:30am 25.9 28.9 25.2 96 0.5 SE 19 26 10 14 1010.5 - 95.2
19/12:00am 25.7 28.5 25.0 96 0.5 SE 19 30 10 16 1011.0 1011.0 95.2
 
Date/Time
EST
Temp
°C
App
Temp
°C
Dew
Point
Rel
Hum
%
Delta-T
°C
Wind Press
QNH
hPa
Press
MSL
hPa
Rain
since 9 am
mm
Dir
 
Spd
km/h
Gust
km/h
Spd
kts
Gust
kts
18/11:30pm 25.6 27.7 24.7 95 0.6 SE 22 33 12 18 1011.2 - 95.2
18/11:12pm 25.9 27.5 25.2 96 0.5 SE 26 39 14 21 1011.6 - 95.2
18/11:00pm 25.9 27.9 25.2 96 0.5 ESE 24 37 13 20 1011.6 - 95.2
18/10:33pm 26.2 29.5 25.7 97 0.4 SE 19 28 10 15 1011.7 - 95.2
18/10:30pm 26.2 29.3 25.7 97 0.4 SE 20 35 11 19 1011.7 - 95.2
18/10:22pm 26.1 29.1 25.6 97 0.4 SE 20 35 11 19 1011.7 - 95.2
18/10:00pm 26.1 28.4 25.6 97 0.4 SE 24 32 13 17 1011.6 - 95.2
18/09:57pm 26.1 28.8 25.6 97 0.4 SE 22 32 12 17 1011.6 - 95.2
18/09:30pm 26.2 29.5 25.7 97 0.4 SSE 19 24 10 13 1011.3 - 95.2
18/09:00pm 26.4 29.8 26.1 98 0.2 SE 20 28 11 15 1011.5 1011.5 95.2
18/08:30pm 26.2 29.4 25.9 98 0.2 SE 20 28 11 15 1011.5 - 95.2

Other Formats:

Comma delimited format used in spreadsheet applications
http://www.bom.gov.au/fwo/IDQ60801/IDQ60801.94174.axf

JavaScript Object Notation format (JSON) in row-major order
http://www.bom.gov.au/fwo/IDQ60801/IDQ60801.94174.json